Time;durP1;ratioP1;P1;durP2;ratioP2;P2;SDS_P1;SDS_P2;PMS_P1;PMS_P2;Temp;Humidity;BMP_temperature;BMP_pressure;BME280_temperature;BME280_humidity;BME280_pressure;Samples;Min_cycle;Max_cycle;Signal;HPM_P1;HPM_P2
2022/07/12 00:00:59;;;;;;;5.55;3.33;;;13.90;99.90;;;;;;5038941;28;20033;-75
2022/07/12 00:03:26;;;;;;;7.13;3.47;;;14.30;99.90;;;;;;5048458;28;20028;-75
2022/07/12 00:05:54;;;;;;;4.80;3.67;;;14.50;99.90;;;;;;5049190;28;20106;-76
2022/07/12 00:08:21;;;;;;;4.75;3.45;;;14.30;99.90;;;;;;5037622;28;20116;-78
2022/07/12 00:10:49;;;;;;;7.47;4.35;;;14.40;99.90;;;;;;5060337;28;20037;-76
2022/07/12 00:13:16;;;;;;;3.88;2.55;;;14.30;99.90;;;;;;5040342;28;20075;-76
2022/07/12 00:15:44;;;;;;;5.40;3.40;;;14.50;99.90;;;;;;5044051;28;20040;-76
2022/07/12 00:18:12;;;;;;;4.30;2.80;;;14.70;99.90;;;;;;5049273;28;20048;-75
2022/07/12 00:20:39;;;;;;;4.25;2.60;;;15.00;99.90;;;;;;5043766;28;20383;-75
2022/07/12 00:23:06;;;;;;;4.40;2.97;;;15.20;99.90;;;;;;5038309;28;20124;-76
2022/07/12 00:25:33;;;;;;;7.22;3.47;;;15.50;99.90;;;;;;5035558;28;20029;-74
2022/07/12 00:28:01;;;;;;;3.90;3.40;;;16.00;99.90;;;;;;5032846;28;20475;-75
2022/07/12 00:30:28;;;;;;;5.20;3.80;;;16.60;99.90;;;;;;5032729;28;20033;-74
2022/07/12 00:32:55;;;;;;;7.07;4.78;;;17.50;99.90;;;;;;5032723;28;20490;-74
2022/07/12 00:35:23;;;;;;;7.38;3.83;;;18.30;99.90;;;;;;5033398;28;20029;-74
2022/07/12 00:37:50;;;;;;;6.10;4.18;;;19.00;99.90;;;;;;5032635;28;20037;-74
2022/07/12 00:40:18;;;;;;;8.18;5.03;;;19.30;99.20;;;;;;5028898;28;20032;-73
2022/07/12 00:42:45;;;;;;;5.65;3.85;;;19.40;98.50;;;;;;5032275;28;20476;-75
2022/07/12 00:45:13;;;;;;;4.65;3.25;;;19.70;98.60;;;;;;5040716;28;20047;-73
2022/07/12 00:47:50;;;;;;;4.60;3.35;;;19.70;97.40;;;;;;5047538;28;20028;-73
2022/07/12 00:50:19;;;;;;;5.43;3.17;;;19.90;97.10;;;;;;5047184;28;20124;-72
2022/07/12 00:52:49;;;;;;;5.28;2.60;;;19.90;97.60;;;;;;5059434;28;20455;-74
2022/07/12 00:55:18;;;;;;;3.92;2.70;;;20.10;97.80;;;;;;5042242;28;20033;-73
2022/07/12 00:57:47;;;;;;;4.00;3.15;;;20.30;97.20;;;;;;5036872;28;20041;-75
2022/07/12 01:00:23;;;;;;;6.72;3.22;;;20.30;96.60;;;;;;5034562;28;20140;-75
2022/07/12 01:02:56;;;;;;;5.57;3.97;;;20.90;95.90;;;;;;5055334;28;20036;-73
2022/07/12 01:05:24;;;;;;;8.57;5.05;;;21.30;95.50;;;;;;5053584;28;20464;-73
2022/07/12 01:07:52;;;;;;;6.50;3.30;;;21.10;95.70;;;;;;5059063;28;20040;-76
2022/07/12 01:10:20;;;;;;;7.05;4.95;;;21.40;95.80;;;;;;5055864;28;20094;-72
2022/07/12 01:12:47;;;;;;;5.38;3.80;;;21.30;95.00;;;;;;5041302;28;20025;-74
2022/07/12 01:15:15;;;;;;;8.18;4.63;;;20.80;94.40;;;;;;5038517;28;20082;-74
2022/07/12 01:17:44;;;;;;;8.20;4.22;;;20.80;94.50;;;;;;5042084;28;20031;-75
2022/07/12 01:20:12;;;;;;;8.18;4.03;;;21.10;95.40;;;;;;5030752;28;20541;-73
2022/07/12 01:22:44;;;;;;;7.10;3.97;;;21.30;95.30;;;;;;5029701;28;20032;-74
2022/07/12 01:25:11;;;;;;;4.80;3.33;;;21.50;94.00;;;;;;5055774;28;20032;-73
2022/07/12 01:27:39;;;;;;;5.03;3.47;;;21.80;93.60;;;;;;5056972;28;20104;-75
2022/07/12 01:30:07;;;;;;;3.22;2.20;;;21.60;94.40;;;;;;5055868;28;20074;-74
2022/07/12 01:32:34;;;;;;;3.88;2.10;;;21.40;93.50;;;;;;5052574;28;20040;-73
2022/07/12 01:35:04;;;;;;;2.97;2.05;;;21.40;94.30;;;;;;5045369;28;20472;-75
2022/07/12 01:37:41;;;;;;;4.35;2.35;;;21.90;93.70;;;;;;5052732;28;20040;-74
2022/07/12 01:40:11;;;;;;;2.90;1.80;;;22.30;93.30;;;;;;5038053;28;20020;-75
2022/07/12 01:42:38;;;;;;;4.43;2.40;;;22.60;93.00;;;;;;5045476;28;20112;-76
2022/07/12 01:45:07;;;;;;;4.25;1.98;;;23.30;91.40;;;;;;5046252;28;20025;-73
2022/07/12 01:47:35;;;;;;;2.25;1.40;;;23.20;91.80;;;;;;5032899;28;20032;-75
2022/07/12 01:50:07;;;;;;;3.42;1.90;;;23.10;91.70;;;;;;5059400;28;20055;-73
2022/07/12 01:52:36;;;;;;;4.60;1.80;;;22.80;91.90;;;;;;5045738;28;20025;-74
2022/07/12 01:55:04;;;;;;;3.17;1.80;;;22.40;92.10;;;;;;5045911;28;20051;-75
2022/07/12 01:57:32;;;;;;;2.33;1.48;;;22.80;91.60;;;;;;5036076;28;20043;-75
2022/07/12 02:00:02;;;;;;;2.83;1.55;;;23.00;91.50;;;;;;5040718;28;20387;-76
2022/07/12 02:02:30;;;;;;;4.60;1.67;;;22.70;91.10;;;;;;5044911;28;20458;-74
2022/07/12 02:05:02;;;;;;;3.00;1.67;;;22.20;92.60;;;;;;5037904;28;20042;-74
2022/07/12 02:07:29;;;;;;;2.85;1.33;;;22.40;93.10;;;;;;5035827;28;20053;-75
2022/07/12 02:09:57;;;;;;;1.95;1.58;;;22.90;92.20;;;;;;5034143;28;20033;-74
2022/07/12 02:12:25;;;;;;;3.03;1.48;;;22.60;91.90;;;;;;5033435;28;20098;-73
2022/07/12 02:14:52;;;;;;;2.85;1.63;;;21.70;91.70;;;;;;5032618;28;20026;-75
2022/07/12 02:17:20;;;;;;;2.15;1.20;;;21.00;92.80;;;;;;5031288;28;20034;-72
2022/07/12 02:19:47;;;;;;;1.80;1.25;;;20.60;93.70;;;;;;5034002;28;20040;-73
2022/07/12 02:22:19;;;;;;;1.92;1.30;;;20.30;94.00;;;;;;5032472;28;20029;-73
2022/07/12 02:24:47;;;;;;;3.00;1.38;;;20.60;94.10;;;;;;5034593;28;20206;-73
2022/07/12 02:27:14;;;;;;;3.90;1.20;;;20.80;94.00;;;;;;5032732;28;20034;-72
2022/07/12 02:29:41;;;;;;;5.60;1.67;;;20.90;93.80;;;;;;5033313;28;20108;-73
2022/07/12 02:32:09;;;;;;;1.73;1.30;;;20.90;93.40;;;;;;5030972;28;20033;-73
2022/07/12 02:34:36;;;;;;;4.10;1.30;;;20.90;93.70;;;;;;5033357;28;20424;-73
2022/07/12 02:37:04;;;;;;;2.35;1.60;;;20.90;93.90;;;;;;5031683;28;20032;-76
2022/07/12 02:39:31;;;;;;;3.20;1.70;;;20.40;93.90;;;;;;5029465;28;20059;-75
2022/07/12 02:41:58;;;;;;;3.28;1.50;;;19.90;94.60;;;;;;5035561;28;20016;-75
2022/07/12 02:44:25;;;;;;;3.60;1.70;;;19.70;94.80;;;;;;5033601;28;20056;-74
2022/07/12 02:46:53;;;;;;;4.18;1.73;;;19.70;94.40;;;;;;5035214;28;20032;-74
2022/07/12 02:49:20;;;;;;;1.42;1.17;;;19.50;94.50;;;;;;5038394;28;20041;-74
2022/07/12 02:51:47;;;;;;;3.97;1.67;;;19.70;95.40;;;;;;5031718;28;20026;-77
2022/07/12 02:54:15;;;;;;;2.63;1.40;;;20.00;94.40;;;;;;5032013;28;20115;-73
2022/07/12 02:56:42;;;;;;;3.72;1.40;;;20.70;93.90;;;;;;5035587;28;20057;-72
2022/07/12 02:59:09;;;;;;;2.78;1.50;;;20.70;93.40;;;;;;5032962;28;20029;-72
2022/07/12 03:01:37;;;;;;;2.40;1.27;;;20.20;94.00;;;;;;5029836;28;20060;-71
2022/07/12 03:04:04;;;;;;;4.35;1.63;;;19.80;94.30;;;;;;5034700;28;20032;-73
2022/07/12 03:06:31;;;;;;;2.70;1.70;;;19.50;95.00;;;;;;5030215;28;20036;-72
2022/07/12 03:08:59;;;;;;;1.92;1.10;;;19.20;94.70;;;;;;5029070;28;20510;-75
2022/07/12 03:11:26;;;;;;;2.38;1.20;;;19.20;95.20;;;;;;5037305;28;20045;-75
2022/07/12 03:13:53;;;;;;;2.42;1.10;;;19.10;94.40;;;;;;5031713;28;20125;-74
2022/07/12 03:16:22;;;;;;;2.05;1.20;;;19.00;94.10;;;;;;5033941;28;20032;-76
2022/07/12 03:18:50;;;;;;;1.02;0.70;;;18.80;95.00;;;;;;5031556;28;20032;-73
2022/07/12 03:21:17;;;;;;;2.35;1.20;;;18.50;95.10;;;;;;5034199;28;20036;-73
2022/07/12 03:23:44;;;;;;;2.80;1.42;;;18.60;95.80;;;;;;5027747;28;20464;-75
2022/07/12 03:26:12;;;;;;;2.03;1.30;;;18.80;95.00;;;;;;5035378;28;20115;-76
2022/07/12 03:28:39;;;;;;;2.42;1.30;;;19.10;94.40;;;;;;5033244;28;20059;-74
2022/07/12 03:31:06;;;;;;;6.60;1.77;;;19.20;95.00;;;;;;5031273;28;20040;-74
2022/07/12 03:33:34;;;;;;;3.17;1.58;;;19.20;94.80;;;;;;5032730;28;20133;-73
2022/07/12 03:36:01;;;;;;;1.90;1.27;;;19.20;94.70;;;;;;5036701;28;20036;-75
2022/07/12 03:38:29;;;;;;;5.38;0.88;;;19.20;94.60;;;;;;5030405;28;20394;-73
2022/07/12 03:40:56;;;;;;;2.25;1.05;;;19.10;94.30;;;;;;5030123;28;20029;-76
2022/07/12 03:43:23;;;;;;;2.63;1.20;;;18.90;93.80;;;;;;5030463;28;20452;-75
2022/07/12 03:45:51;;;;;;;1.90;1.02;;;18.70;93.50;;;;;;5030623;28;20459;-78
2022/07/12 03:48:18;;;;;;;2.20;0.95;;;18.50;93.10;;;;;;5032623;28;20032;-74
2022/07/12 03:50:45;;;;;;;1.80;1.20;;;18.30;94.20;;;;;;5033666;28;22127;-74
2022/07/12 03:53:13;;;;;;;2.10;1.25;;;18.20;94.40;;;;;;5030465;28;20021;-74
2022/07/12 03:55:40;;;;;;;2.70;1.30;;;18.10;95.10;;;;;;5027533;28;20024;-75
2022/07/12 03:58:07;;;;;;;3.33;1.05;;;18.10;95.30;;;;;;5034505;28;20024;-74
2022/07/12 04:00:35;;;;;;;5.03;1.70;;;17.80;95.30;;;;;;5025770;28;20063;-74
2022/07/12 04:03:03;;;;;;;3.63;1.30;;;17.70;95.60;;;;;;5032926;28;20020;-76
2022/07/12 04:05:30;;;;;;;1.58;1.10;;;17.60;95.60;;;;;;5031200;28;20045;-76
2022/07/12 04:07:58;;;;;;;1.77;1.42;;;17.50;96.20;;;;;;5030383;28;20033;-75
2022/07/12 04:10:26;;;;;;;3.90;0.90;;;17.40;95.20;;;;;;5031847;28;20044;-74
2022/07/12 04:12:53;;;;;;;4.63;1.15;;;17.40;95.50;;;;;;5035293;28;20062;-73
2022/07/12 04:15:20;;;;;;;4.43;1.00;;;17.30;95.30;;;;;;5029417;28;20155;-74
2022/07/12 04:17:48;;;;;;;4.25;1.27;;;17.20;96.20;;;;;;5031585;28;20525;-74
2022/07/12 04:20:15;;;;;;;1.60;1.15;;;17.30;95.90;;;;;;5031218;28;20036;-72
2022/07/12 04:22:43;;;;;;;2.75;1.30;;;17.20;95.60;;;;;;5029508;28;20725;-72
2022/07/12 04:25:10;;;;;;;2.40;0.98;;;17.10;95.90;;;;;;5029880;28;22068;-74
2022/07/12 04:27:37;;;;;;;0.93;0.60;;;17.10;95.40;;;;;;5030184;28;20029;-72
2022/07/12 04:30:05;;;;;;;1.20;0.70;;;17.00;95.70;;;;;;5030228;28;20056;-74
2022/07/12 04:32:33;;;;;;;1.23;0.60;;;17.00;95.30;;;;;;5030009;28;20021;-72
2022/07/12 04:35:00;;;;;;;1.50;0.30;;;16.90;95.20;;;;;;5028767;28;20017;-71
2022/07/12 04:37:28;;;;;;;0.15;0.10;;;16.90;94.10;;;;;;5031698;28;20478;-73
2022/07/12 04:39:55;;;;;;;0.30;0.20;;;16.80;93.70;;;;;;5026489;28;20033;-72
2022/07/12 04:42:22;;;;;;;1.45;0.22;;;16.80;93.50;;;;;;5031211;28;20029;-71
2022/07/12 04:44:50;;;;;;;1.38;0.40;;;16.70;93.60;;;;;;5027747;28;20090;-72
2022/07/12 04:47:17;;;;;;;1.85;0.38;;;16.60;94.20;;;;;;5027967;28;20121;-73
2022/07/12 04:49:45;;;;;;;2.15;0.63;;;16.60;94.80;;;;;;5029778;28;21221;-74
2022/07/12 04:52:12;;;;;;;1.40;0.40;;;16.50;94.70;;;;;;5030815;28;20029;-73
2022/07/12 04:54:39;;;;;;;1.70;0.28;;;16.40;94.50;;;;;;5031898;28;20075;-73
2022/07/12 04:57:07;;;;;;;2.08;0.57;;;16.30;94.50;;;;;;5026153;28;20075;-73
2022/07/12 04:59:34;;;;;;;0.63;0.40;;;16.20;94.30;;;;;;5031285;28;20571;-72
2022/07/12 05:02:02;;;;;;;1.08;0.30;;;16.20;94.30;;;;;;5030402;28;20060;-72
2022/07/12 05:04:33;;;;;;;0.57;0.20;;;16.10;94.50;;;;;;5029767;28;20036;-72
2022/07/12 05:07:01;;;;;;;0.35;0.20;;;15.90;93.90;;;;;;5032655;28;20191;-73
2022/07/12 05:09:28;;;;;;;0.52;0.30;;;15.90;94.40;;;;;;5032353;28;20052;-73
2022/07/12 05:11:55;;;;;;;0.35;0.20;;;15.80;94.30;;;;;;5034642;28;20142;-74
2022/07/12 05:14:23;;;;;;;0.20;0.20;;;15.70;94.30;;;;;;5040874;28;20077;-73
2022/07/12 05:16:50;;;;;;;2.20;0.30;;;15.70;94.40;;;;;;5033676;28;20039;-74
2022/07/12 05:19:18;;;;;;;0.70;0.20;;;15.80;93.90;;;;;;5033540;28;20091;-73
2022/07/12 05:21:46;;;;;;;0.63;0.25;;;15.80;93.60;;;;;;5035582;28;20476;-73
2022/07/12 05:24:13;;;;;;;0.85;0.40;;;15.90;93.70;;;;;;5030472;28;20036;-74
2022/07/12 05:26:41;;;;;;;0.25;0.10;;;15.90;93.50;;;;;;5036827;28;20039;-73
2022/07/12 05:29:08;;;;;;;0.10;0.00;;;15.90;93.80;;;;;;5033490;28;20100;-74
2022/07/12 05:31:36;;;;;;;0.38;0.15;;;15.90;94.30;;;;;;5033628;28;20042;-73
2022/07/12 05:34:03;;;;;;;0.60;0.20;;;16.00;93.90;;;;;;5034547;28;20470;-73
2022/07/12 05:36:30;;;;;;;1.02;0.30;;;16.00;94.10;;;;;;5034660;28;20408;-75
2022/07/12 05:38:58;;;;;;;1.30;0.47;;;16.00;94.50;;;;;;5029643;28;20029;-73
2022/07/12 05:41:25;;;;;;;0.65;0.30;;;16.00;93.90;;;;;;5031225;28;20030;-72
2022/07/12 05:43:53;;;;;;;0.52;0.40;;;16.00;93.90;;;;;;5032271;28;20383;-73
2022/07/12 05:46:20;;;;;;;0.93;0.20;;;16.00;93.90;;;;;;5033499;28;20097;-73
2022/07/12 05:48:48;;;;;;;0.45;0.20;;;16.00;92.90;;;;;;5033292;28;20045;-73
2022/07/12 05:54:01;;;;;;;0.43;0.10;;;15.90;93.00;;;;;;5034195;28;20078;-73
2022/07/12 05:56:28;;;;;;;0.40;0.15;;;15.90;93.70;;;;;;5044075;28;20395;-75
2022/07/12 05:58:56;;;;;;;0.28;0.10;;;15.90;93.70;;;;;;5041308;28;20106;-72
2022/07/12 06:01:23;;;;;;;0.20;0.20;;;15.80;94.40;;;;;;5048267;28;20033;-72
2022/07/12 06:03:50;;;;;;;0.52;0.20;;;15.80;94.40;;;;;;5038552;28;20407;-73
2022/07/12 06:06:18;;;;;;;1.10;0.20;;;15.80;94.80;;;;;;5032182;28;20032;-75
2022/07/12 06:08:45;;;;;;;0.28;0.10;;;15.80;94.20;;;;;;5033076;28;20501;-73
2022/07/12 06:11:12;;;;;;;0.60;0.45;;;15.80;94.80;;;;;;5033483;28;20040;-72
2022/07/12 06:13:40;;;;;;;0.60;0.20;;;15.80;95.40;;;;;;5029052;28;20018;-74
2022/07/12 06:16:09;;;;;;;0.10;0.10;;;15.80;95.30;;;;;;5031627;28;20272;-73
2022/07/12 06:18:37;;;;;;;0.10;0.10;;;15.80;94.50;;;;;;5031052;28;20017;-74
2022/07/12 06:21:05;;;;;;;0.35;0.20;;;15.80;94.10;;;;;;5033145;28;21136;-74
2022/07/12 06:23:32;;;;;;;2.40;0.10;;;15.70;94.80;;;;;;5033602;28;20120;-73
2022/07/12 06:26:00;;;;;;;0.43;0.20;;;15.60;94.30;;;;;;5032303;28;20383;-74
2022/07/12 06:28:27;;;;;;;0.10;0.10;;;15.40;94.80;;;;;;5029935;28;20060;-77
2022/07/12 06:30:55;;;;;;;0.20;0.10;;;15.30;94.80;;;;;;5036470;28;21012;-72
2022/07/12 06:33:22;;;;;;;2.20;0.15;;;15.20;95.70;;;;;;5033996;28;20441;-76
2022/07/12 06:35:50;;;;;;;1.58;0.20;;;15.10;96.00;;;;;;5039133;28;20041;-76
2022/07/12 06:38:17;;;;;;;0.68;0.20;;;14.90;95.70;;;;;;5032143;28;20067;-75
2022/07/12 06:40:44;;;;;;;0.30;0.20;;;14.70;96.10;;;;;;5036351;28;20033;-75
2022/07/12 06:43:13;;;;;;;0.38;0.20;;;14.60;96.50;;;;;;5034784;28;20100;-73
2022/07/12 06:45:41;;;;;;;0.30;0.17;;;14.50;97.00;;;;;;5046319;28;20120;-74
2022/07/12 06:48:08;;;;;;;0.28;0.20;;;14.30;97.20;;;;;;5040190;28;20461;-75
2022/07/12 06:50:36;;;;;;;1.20;0.20;;;14.20;97.90;;;;;;5050002;28;20340;-74
2022/07/12 06:53:04;;;;;;;0.30;0.20;;;14.10;98.60;;;;;;5046648;28;20021;-73
2022/07/12 06:55:31;;;;;;;0.30;0.20;;;13.90;99.20;;;;;;5044567;28;20112;-73
2022/07/12 06:57:58;;;;;;;0.57;0.22;;;13.90;99.40;;;;;;5051946;28;20033;-73
2022/07/12 07:00:26;;;;;;;0.77;0.20;;;13.70;99.00;;;;;;5046794;28;20021;-74
2022/07/12 07:02:53;;;;;;;1.02;0.50;;;13.70;99.20;;;;;;5034311;28;20033;-73
2022/07/12 07:05:21;;;;;;;2.40;1.13;;;13.70;99.40;;;;;;5033318;28;20095;-73
2022/07/12 07:07:48;;;;;;;16.98;10.80;;;13.60;98.90;;;;;;5029643;28;20353;-72
2022/07/12 07:10:16;;;;;;;7.85;4.05;;;13.60;98.80;;;;;;5030554;28;20061;-73
2022/07/12 07:12:43;;;;;;;5.95;3.63;;;13.60;99.20;;;;;;5032295;28;20025;-72
2022/07/12 07:15:13;;;;;;;5.00;3.25;;;13.50;99.90;;;;;;5030372;28;20029;-75
2022/07/12 07:17:42;;;;;;;5.30;3.13;;;13.50;99.90;;;;;;5033473;28;20021;-72
2022/07/12 07:20:11;;;;;;;2.85;1.83;;;13.40;99.90;;;;;;5031106;28;20036;-74
2022/07/12 07:22:39;;;;;;;4.07;1.63;;;13.30;99.90;;;;;;5032825;28;20736;-73
2022/07/12 07:25:07;;;;;;;2.42;1.38;;;13.30;99.90;;;;;;5029567;28;20036;-74
2022/07/12 07:27:35;;;;;;;2.97;1.88;;;13.20;99.90;;;;;;5028525;28;20958;-73
2022/07/12 07:32:48;;;;;;;3.03;1.98;;;13.10;99.90;;;;;;5033311;28;20575;-73
2022/07/12 07:35:16;;;;;;;3.50;1.85;;;13.10;99.90;;;;;;5033644;28;20108;-74
2022/07/12 07:37:43;;;;;;;2.30;1.90;;;13.10;99.90;;;;;;5004068;28;20052;-75
2022/07/12 07:40:11;;;;;;;2.38;1.35;;;13.10;99.90;;;;;;4989781;28;20026;-74
2022/07/12 07:42:38;;;;;;;3.50;1.73;;;13.10;99.90;;;;;;4993129;28;20033;-76
2022/07/12 07:45:07;;;;;;;3.45;2.08;;;13.10;99.90;;;;;;4989469;28;20389;-78
2022/07/12 07:47:46;;;;;;;7.25;3.60;;;13.10;99.90;;;;;;4991130;28;20031;-73
2022/07/12 07:50:13;;;;;;;5.32;3.20;;;13.20;99.90;;;;;;4989728;28;20177;-74
2022/07/12 07:52:41;;;;;;;6.82;2.45;;;13.20;99.90;;;;;;4992296;28;20554;-73
2022/07/12 07:55:09;;;;;;;4.65;3.30;;;13.20;99.90;;;;;;4990327;28;20026;-74
2022/07/12 07:57:36;;;;;;;7.35;4.28;;;13.20;99.90;;;;;;4988582;28;20033;-73
2022/07/12 08:00:05;;;;;;;6.65;4.00;;;13.30;99.90;;;;;;4998994;28;20022;-73
2022/07/12 08:02:32;;;;;;;5.00;3.33;;;13.30;99.90;;;;;;5003786;28;20056;-74
2022/07/12 08:04:59;;;;;;;6.20;3.92;;;13.30;99.90;;;;;;5004795;28;20018;-73
2022/07/12 08:07:27;;;;;;;8.23;2.97;;;13.30;99.90;;;;;;5010218;28;20030;-74
2022/07/12 08:09:54;;;;;;;6.80;3.67;;;13.20;99.90;;;;;;5003236;28;20465;-73
2022/07/12 08:12:22;;;;;;;5.60;4.68;;;13.20;99.90;;;;;;4997550;28;20496;-74
2022/07/12 08:14:50;;;;;;;8.55;4.82;;;13.10;99.90;;;;;;5005493;28;20034;-77
2022/07/12 08:17:17;;;;;;;8.38;5.15;;;13.00;99.90;;;;;;5012611;28;20033;-73
2022/07/12 08:19:45;;;;;;;6.70;4.55;;;13.00;99.90;;;;;;5015641;28;20057;-72
2022/07/12 08:22:12;;;;;;;10.15;4.28;;;13.00;99.90;;;;;;4994120;28;20229;-72
2022/07/12 08:24:39;;;;;;;5.70;3.95;;;13.00;99.90;;;;;;5000967;28;20121;-76
2022/07/12 08:27:07;;;;;;;5.93;4.03;;;12.90;99.90;;;;;;5008930;28;20029;-77
2022/07/12 08:29:34;;;;;;;6.15;3.72;;;12.90;99.90;;;;;;4997226;28;20040;-77
2022/07/12 08:32:02;;;;;;;5.05;3.42;;;12.80;99.90;;;;;;5020571;28;20513;-75
2022/07/12 08:34:30;;;;;;;6.35;3.50;;;12.80;99.90;;;;;;5009014;28;20484;-75
2022/07/12 08:36:57;;;;;;;10.73;6.40;;;12.70;99.90;;;;;;4990135;28;20069;-75
2022/07/12 08:39:24;;;;;;;12.02;7.82;;;12.70;99.90;;;;;;4997758;28;20843;-73
2022/07/12 08:41:52;;;;;;;7.30;5.60;;;12.70;99.90;;;;;;4996227;28;20141;-72
2022/07/12 08:44:19;;;;;;;9.88;4.15;;;12.80;99.90;;;;;;4991619;28;20029;-76
2022/07/12 08:46:49;;;;;;;6.82;4.68;;;12.80;99.90;;;;;;4989903;28;20038;-73
2022/07/12 08:49:17;;;;;;;12.95;6.65;;;12.70;99.90;;;;;;5003368;28;20054;-74
2022/07/12 08:51:48;;;;;;;11.18;6.00;;;12.70;99.90;;;;;;4998309;28;20507;-73
2022/07/12 08:54:18;;;;;;;9.98;7.05;;;12.60;99.90;;;;;;4998980;28;20068;-72
2022/07/12 08:56:45;;;;;;;11.43;8.30;;;12.60;99.90;;;;;;5011233;28;20525;-72
2022/07/12 08:59:17;;;;;;;13.18;8.20;;;12.50;99.90;;;;;;5000296;28;20787;-72
2022/07/12 09:01:53;;;;;;;12.80;8.10;;;12.40;99.90;;;;;;5013104;28;20022;-73
2022/07/12 09:04:27;;;;;;;13.32;7.88;;;12.40;99.90;;;;;;5005527;28;20341;-72
2022/07/12 09:06:54;;;;;;;10.90;6.60;;;12.40;99.90;;;;;;4997399;28;20026;-78
2022/07/12 09:09:29;;;;;;;10.20;6.65;;;12.40;99.90;;;;;;5001435;28;20088;-76
2022/07/12 09:11:57;;;;;;;9.65;6.35;;;12.40;99.90;;;;;;4991364;28;20046;-76
2022/07/12 09:14:26;;;;;;;10.23;7.32;;;12.30;99.90;;;;;;4990998;28;20117;-75
2022/07/12 09:17:09;;;;;;;9.07;6.85;;;12.30;99.90;;;;;;4988855;28;20551;-75
2022/07/12 09:19:37;;;;;;;8.48;6.72;;;12.30;99.90;;;;;;4993288;28;20026;-74
2022/07/12 09:22:14;;;;;;;8.35;5.00;;;12.20;99.90;;;;;;5004030;28;20026;-75
2022/07/12 09:24:44;;;;;;;7.35;4.70;;;12.20;99.90;;;;;;5015206;28;20353;-72
2022/07/12 09:27:13;;;;;;;8.63;4.47;;;12.20;99.90;;;;;;5002573;28;20032;-74
2022/07/12 09:29:51;;;;;;;7.78;4.65;;;12.20;99.90;;;;;;5001456;28;20037;-75
2022/07/12 09:37:49;;;;;;;;;;;12.20;99.90;;;;;;5000435;28;20527;-76
2022/07/12 09:40:17;;;;;;;10.52;5.63;;;12.30;99.90;;;;;;4992445;28;20020;-77
2022/07/12 09:42:44;;;;;;;7.00;5.05;;;12.20;99.90;;;;;;4990226;28;20031;-77
2022/07/12 09:45:12;;;;;;;6.13;4.00;;;12.20;99.90;;;;;;4992867;28;20460;-77
2022/07/12 09:47:39;;;;;;;6.57;4.15;;;12.20;99.90;;;;;;5005137;28;20033;-76
2022/07/12 09:50:09;;;;;;;4.43;3.72;;;12.10;99.90;;;;;;4992275;28;20607;-76
2022/07/12 09:52:39;;;;;;;7.15;4.15;;;12.00;99.90;;;;;;4987346;28;20038;-74
2022/07/12 09:55:10;;;;;;;10.15;7.28;;;11.90;99.90;;;;;;4998358;28;20045;-74
2022/07/12 09:57:43;;;;;;;13.10;8.27;;;11.80;99.90;;;;;;4997538;28;20034;-73
2022/07/12 10:00:12;;;;;;;13.57;7.65;;;11.80;99.90;;;;;;4992160;28;20346;-73
2022/07/12 10:02:40;;;;;;;10.32;7.45;;;11.70;99.90;;;;;;4990354;28;20084;-73
2022/07/12 10:05:11;;;;;;;13.40;7.57;;;11.70;99.90;;;;;;4989920;28;20118;-75
2022/07/12 10:07:39;;;;;;;13.30;7.50;;;11.60;99.90;;;;;;4990991;28;20061;-75
2022/07/12 10:10:08;;;;;;;10.25;7.25;;;11.60;99.90;;;;;;4995681;28;20089;-74
2022/07/12 10:12:36;;;;;;;12.35;7.57;;;11.50;99.90;;;;;;4993715;28;20030;-74
2022/07/12 10:15:09;;;;;;;12.05;6.80;;;11.50;99.90;;;;;;4989600;28;20113;-78
2022/07/12 10:17:37;;;;;;;13.68;6.95;;;11.40;99.90;;;;;;4989742;28;20437;-76
2022/07/12 10:20:18;;;;;;;14.18;6.82;;;11.40;99.90;;;;;;4991049;28;20037;-76
2022/07/12 10:22:46;;;;;;;13.52;8.48;;;11.30;99.90;;;;;;4997096;28;20030;-74
2022/07/12 10:25:30;;;;;;;9.57;6.68;;;11.30;99.90;;;;;;4996995;28;20038;-76
2022/07/12 10:28:00;;;;;;;10.75;6.65;;;11.30;99.90;;;;;;4993135;28;20185;-74
2022/07/12 10:30:28;;;;;;;12.40;7.10;;;11.30;99.90;;;;;;5009571;28;20499;-77
2022/07/12 10:32:59;;;;;;;6.80;4.88;;;11.30;99.90;;;;;;5025265;28;20028;-73
2022/07/12 10:35:29;;;;;;;6.63;4.40;;;11.30;99.90;;;;;;4994930;28;20125;-74
2022/07/12 10:38:16;;;;;;;7.25;3.63;;;11.30;99.90;;;;;;5006535;28;20461;-75
2022/07/12 10:40:45;;;;;;;5.63;4.22;;;11.30;99.90;;;;;;4995953;28;20133;-75
2022/07/12 10:43:16;;;;;;;6.53;3.53;;;11.30;99.90;;;;;;5011697;28;20488;-75
2022/07/12 10:45:45;;;;;;;5.10;3.53;;;11.40;99.90;;;;;;5012465;28;20474;-77
2022/07/12 10:48:15;;;;;;;5.85;3.42;;;11.30;99.90;;;;;;5012170;28;20144;-75
2022/07/12 10:50:45;;;;;;;6.68;3.38;;;11.40;99.90;;;;;;5009430;28;20049;-75
2022/07/12 10:53:23;;;;;;;6.95;3.38;;;11.50;99.90;;;;;;5007174;28;20026;-74
2022/07/12 10:56:05;;;;;;;6.13;3.13;;;11.50;99.90;;;;;;4993206;28;20440;-75
2022/07/12 10:58:35;;;;;;;11.55;5.53;;;11.50;99.90;;;;;;5000185;28;20564;-76
2022/07/12 11:01:13;;;;;;;21.25;9.10;;;11.50;99.90;;;;;;5010293;28;20075;-75
2022/07/12 11:03:42;;;;;;;38.08;18.48;;;11.60;99.90;;;;;;5003251;28;20061;-76
2022/07/12 11:06:12;;;;;;;23.83;13.80;;;11.50;99.90;;;;;;4998088;28;20030;-77
2022/07/12 11:08:50;;;;;;;23.25;10.93;;;11.50;99.90;;;;;;4995169;28;20022;-75
2022/07/12 11:11:18;;;;;;;16.73;9.80;;;11.50;99.90;;;;;;4994866;28;20519;-78
2022/07/12 11:13:46;;;;;;;10.38;6.07;;;11.40;99.90;;;;;;4993828;28;20516;-75
2022/07/12 11:16:13;;;;;;;10.10;6.28;;;11.40;99.90;;;;;;4999929;28;20065;-74
2022/07/12 11:18:41;;;;;;;8.23;5.30;;;11.40;99.90;;;;;;5005755;28;20113;-75
2022/07/12 11:21:08;;;;;;;7.00;3.80;;;11.40;99.90;;;;;;5003838;28;20042;-75
2022/07/12 11:23:38;;;;;;;6.10;3.13;;;11.40;99.90;;;;;;5026458;28;20041;-77
2022/07/12 11:26:06;;;;;;;5.00;3.15;;;11.40;99.90;;;;;;5014952;28;20034;-77
2022/07/12 11:28:34;;;;;;;5.90;3.58;;;11.40;99.90;;;;;;5002641;28;20084;-74
2022/07/12 11:31:16;;;;;;;7.03;4.03;;;11.40;99.90;;;;;;5013761;28;20049;-78
2022/07/12 11:33:46;;;;;;;6.00;2.95;;;11.40;99.90;;;;;;5009494;28;20042;-75
2022/07/12 11:36:15;;;;;;;4.25;3.17;;;11.40;99.90;;;;;;5030605;28;20467;-74
2022/07/12 11:38:45;;;;;;;4.13;3.03;;;11.50;99.90;;;;;;5008203;28;20495;-76
2022/07/12 11:41:14;;;;;;;5.57;3.45;;;11.40;99.90;;;;;;5008495;28;20041;-77
2022/07/12 11:43:43;;;;;;;5.22;3.00;;;11.40;99.90;;;;;;4997919;28;20026;-77
2022/07/12 11:46:11;;;;;;;6.10;2.63;;;11.40;99.90;;;;;;5001839;28;20026;-78
2022/07/12 11:48:41;;;;;;;6.10;3.85;;;11.40;99.90;;;;;;5000007;28;20393;-76
2022/07/12 11:51:13;;;;;;;5.97;3.40;;;11.30;99.90;;;;;;4991476;28;20046;-79
2022/07/12 11:53:41;;;;;;;6.78;3.47;;;11.40;99.90;;;;;;4993286;28;20026;-77
2022/07/12 11:56:10;;;;;;;6.88;3.75;;;11.40;99.90;;;;;;4991375;28;20041;-79
2022/07/12 11:58:38;;;;;;;6.43;3.78;;;11.30;99.90;;;;;;4998097;28;20469;-77
2022/07/12 12:01:10;;;;;;;7.20;3.67;;;11.30;99.90;;;;;;4992326;28;20042;-78
2022/07/12 12:03:45;;;;;;;4.97;3.60;;;11.30;99.90;;;;;;4999588;28;20030;-76
2022/07/12 12:06:14;;;;;;;8.03;4.33;;;11.40;99.90;;;;;;5014238;28;20026;-78
2022/07/12 12:08:41;;;;;;;11.13;8.25;;;11.30;99.90;;;;;;5012659;28;20808;-76
2022/07/12 12:11:09;;;;;;;9.10;6.18;;;11.40;99.90;;;;;;5008042;28;20045;-76
2022/07/12 12:13:36;;;;;;;7.22;6.35;;;11.40;99.90;;;;;;5010528;28;20582;-78
2022/07/12 12:16:05;;;;;;;8.02;6.07;;;11.40;99.90;;;;;;4990389;28;20093;-78
2022/07/12 12:18:42;;;;;;;6.82;5.35;;;11.40;99.90;;;;;;4999339;28;20058;-79
2022/07/12 12:21:11;;;;;;;6.13;4.28;;;11.40;99.90;;;;;;4990860;28;20407;-77
2022/07/12 12:23:41;;;;;;;4.75;3.83;;;11.40;99.90;;;;;;5012750;28;20455;-77
2022/07/12 12:26:25;;;;;;;6.30;3.58;;;11.40;99.90;;;;;;4995052;28;20034;-75
2022/07/12 12:28:55;;;;;;;4.78;2.80;;;11.30;99.90;;;;;;4989670;28;20062;-77
2022/07/12 12:31:23;;;;;;;3.55;2.95;;;11.40;99.90;;;;;;4991525;28;20042;-76
2022/07/12 12:33:58;;;;;;;3.85;2.42;;;11.30;99.90;;;;;;4994456;28;20030;-77
2022/07/12 12:36:27;;;;;;;2.53;2.20;;;11.30;99.90;;;;;;4991230;28;20031;-76
2022/07/12 12:38:56;;;;;;;4.40;2.85;;;11.30;99.90;;;;;;4990876;28;20084;-76
2022/07/12 12:41:26;;;;;;;5.40;2.80;;;11.30;99.90;;;;;;5003882;28;20032;-74
2022/07/12 12:44:01;;;;;;;4.47;2.42;;;11.30;99.90;;;;;;4995554;28;20030;-75
2022/07/12 12:47:30;;;;;;;5.63;3.97;;;11.20;99.90;;;;;;4990535;28;20090;-73
2022/07/12 12:49:50;;;;;;;14.57;6.68;;;11.30;99.90;;;;;;4987385;28;20081;-75
2022/07/12 12:52:19;;;;;;;7.55;5.20;;;11.30;99.90;;;;;;4986970;28;20492;-75
2022/07/12 12:54:46;;;;;;;23.75;12.95;;;11.20;99.90;;;;;;5004450;28;20041;-74
2022/07/12 12:57:14;;;;;;;9.93;6.57;;;11.20;99.90;;;;;;4998262;28;20476;-78
2022/07/12 12:59:41;;;;;;;8.90;6.13;;;11.20;99.90;;;;;;5011034;28;20026;-77
2022/07/12 13:02:09;;;;;;;9.05;5.85;;;11.10;99.90;;;;;;5020048;28;20142;-78
2022/07/12 13:04:38;;;;;;;8.00;5.13;;;11.20;99.90;;;;;;4996621;28;20034;-75